createdAt,value
2023-02-11T00:19:31.397Z,54
2023-02-11T00:48:49.961Z,55
2023-02-11T01:18:09.564Z,56
2023-02-11T01:47:27.179Z,54
2023-02-11T02:16:45.033Z,52
2023-02-11T02:46:09.908Z,51
2023-02-11T03:15:20.087Z,52
2023-02-11T03:44:40.270Z,53
2023-02-11T04:14:02.242Z,54
2023-02-11T04:43:17.833Z,52
2023-02-11T05:12:24.390Z,52
2023-02-11T05:41:36.298Z,51
2023-02-11T06:10:39.912Z,48
2023-02-11T06:39:52.871Z,45
2023-02-11T07:09:07.213Z,51
2023-02-11T07:38:25.117Z,54
2023-02-11T08:07:44.053Z,52
2023-02-11T08:37:00.531Z,56
2023-02-11T09:06:19.800Z,51
2023-02-11T09:35:37.312Z,54
2023-02-11T10:05:01.974Z,59
2023-02-11T10:34:21.008Z,71
2023-02-11T11:03:43.212Z,76
2023-02-11T11:33:07.713Z,74
2023-02-11T12:02:30.932Z,66
2023-02-11T12:31:56.954Z,52
2023-02-11T13:01:16.430Z,44
2023-02-11T13:30:28.861Z,41
2023-02-11T13:59:40.704Z,35
2023-02-11T14:29:03.468Z,50
2023-02-11T14:58:25.341Z,52
2023-02-11T15:27:46.397Z,51
2023-02-11T15:57:06.527Z,50
2023-02-11T16:26:21.024Z,54
2023-02-11T16:55:32.460Z,55
2023-02-11T17:24:27.982Z,59
2023-02-11T17:53:40.152Z,61
2023-02-11T18:22:48.455Z,68
2023-02-11T18:51:59.644Z,99
2023-02-11T19:21:09.523Z,78
2023-02-11T19:50:23.146Z,75
2023-02-11T20:19:31.981Z,76
2023-02-11T20:48:39.948Z,80
2023-02-11T21:17:51.494Z,76
2023-02-11T21:47:07.286Z,70
2023-02-11T22:16:17.539Z,66
2023-02-11T22:45:30.031Z,62
2023-02-11T23:14:44.929Z,53
2023-02-11T23:44:07.071Z,54
